sensor_id;sensor_type;location;lat;lon;timestamp;pressure;altitude;pressure_sealevel;temperature;humidity
61676;BME280;47574;52.090;5.244;2023-07-20T00:01:12;101436.0;;;22.92;55.6
61676;BME280;47574;52.090;5.244;2023-07-20T00:02:50;101437.0;;;22.85;55.84
61676;BME280;47574;52.090;5.244;2023-07-20T00:04:26;101437.0;;;22.93;55.68
61676;BME280;47574;52.090;5.244;2023-07-20T00:06:02;101438.0;;;22.65;56.32
61676;BME280;47574;52.090;5.244;2023-07-20T00:09:14;101435.0;;;22.9;55.36
61676;BME280;47574;52.090;5.244;2023-07-20T00:10:50;101437.0;;;22.87;55.75
61676;BME280;47574;52.090;5.244;2023-07-20T00:12:27;101440.0;;;22.46;56.19
61676;BME280;47574;52.090;5.244;2023-07-20T00:15:39;101436.0;;;22.6;56.14
61676;BME280;47574;52.090;5.244;2023-07-20T00:17:15;101439.0;;;22.49;56.29
61676;BME280;47574;52.090;5.244;2023-07-20T00:18:51;101440.0;;;22.34;56.63
61676;BME280;47574;52.090;5.244;2023-07-20T00:22:04;101441.0;;;22.42;56.79
61676;BME280;47574;52.090;5.244;2023-07-20T00:23:39;101441.0;;;22.43;56.76
61676;BME280;47574;52.090;5.244;2023-07-20T00:25:16;101442.0;;;22.5;56.43
61676;BME280;47574;52.090;5.244;2023-07-20T00:28:28;101445.0;;;22.55;56.77
61676;BME280;47574;52.090;5.244;2023-07-20T00:30:05;101443.0;;;22.55;56.17
61676;BME280;47574;52.090;5.244;2023-07-20T00:31:41;101441.0;;;22.51;55.99
61676;BME280;47574;52.090;5.244;2023-07-20T00:33:18;101437.0;;;22.38;56.85
61676;BME280;47574;52.090;5.244;2023-07-20T00:36:30;101434.0;;;22.63;56.19
61676;BME280;47574;52.090;5.244;2023-07-20T00:38:06;101434.0;;;22.82;55.7
61676;BME280;47574;52.090;5.244;2023-07-20T00:39:42;101435.0;;;22.36;56.45
61676;BME280;47574;52.090;5.244;2023-07-20T00:42:55;101437.0;;;22.48;56.39
61676;BME280;47574;52.090;5.244;2023-07-20T00:44:31;101441.0;;;22.49;55.9
61676;BME280;47574;52.090;5.244;2023-07-20T00:46:07;101437.0;;;22.3;56.39
61676;BME280;47574;52.090;5.244;2023-07-20T00:49:22;101436.0;;;22.3;56.03
61676;BME280;47574;52.090;5.244;2023-07-20T00:50:59;101435.0;;;22.46;56.31
61676;BME280;47574;52.090;5.244;2023-07-20T00:52:37;101437.0;;;22.61;56.17
61676;BME280;47574;52.090;5.244;2023-07-20T00:54:14;101436.0;;;22.55;56.23
61676;BME280;47574;52.090;5.244;2023-07-20T00:57:27;101437.0;;;22.63;55.29
61676;BME280;47574;52.090;5.244;2023-07-20T00:59:03;101438.0;;;22.43;56.27
61676;BME280;47574;52.090;5.244;2023-07-20T01:00:40;101436.0;;;22.14;56.66
61676;BME280;47574;52.090;5.244;2023-07-20T01:03:52;101440.0;;;22.36;55.93
61676;BME280;47574;52.090;5.244;2023-07-20T01:05:36;101440.0;;;22.4;55.99
61676;BME280;47574;52.090;5.244;2023-07-20T01:07:21;101440.0;;;22.5;55.73
61676;BME280;47574;52.090;5.244;2023-07-20T01:09:08;101439.0;;;22.32;56.04
61676;BME280;47574;52.090;5.244;2023-07-20T01:12:40;101438.0;;;22.28;55.85
61676;BME280;47574;52.090;5.244;2023-07-20T01:14:20;101433.0;;;22.19;55.91
61676;BME280;47574;52.090;5.244;2023-07-20T01:15:57;101436.0;;;22.12;56.07
61676;BME280;47574;52.090;5.244;2023-07-20T01:17:35;101436.0;;;22.08;56.26
61676;BME280;47574;52.090;5.244;2023-07-20T01:19:13;101436.0;;;22.02;56.44
61676;BME280;47574;52.090;5.244;2023-07-20T01:22:37;101436.0;;;21.88;56.37
61676;BME280;47574;52.090;5.244;2023-07-20T01:24:39;101437.0;;;22.16;56.07
61676;BME280;47574;52.090;5.244;2023-07-20T01:27:05;101444.0;;;22.23;55.59
61676;BME280;47574;52.090;5.244;2023-07-20T01:30:16;101443.0;;;21.99;55.65
61676;BME280;47574;52.090;5.244;2023-07-20T01:32:01;101445.0;;;22.03;56.1
61676;BME280;47574;52.090;5.244;2023-07-20T01:35:18;101448.0;;;22.01;55.7
61676;BME280;47574;52.090;5.244;2023-07-20T01:36:58;101448.0;;;21.73;55.96
61676;BME280;47574;52.090;5.244;2023-07-20T01:38:35;101444.0;;;22.18;55.29
61676;BME280;47574;52.090;5.244;2023-07-20T01:40:13;101449.0;;;21.68;55.95
61676;BME280;47574;52.090;5.244;2023-07-20T01:43:26;101452.0;;;21.61;56.23
61676;BME280;47574;52.090;5.244;2023-07-20T01:45:02;101449.0;;;21.94;55.31
61676;BME280;47574;52.090;5.244;2023-07-20T01:46:39;101448.0;;;21.65;56.16
61676;BME280;47574;52.090;5.244;2023-07-20T01:49:51;101448.0;;;21.82;55.85
61676;BME280;47574;52.090;5.244;2023-07-20T01:51:27;101449.0;;;21.86;55.39
61676;BME280;47574;52.090;5.244;2023-07-20T01:53:03;101451.0;;;21.34;56.82
61676;BME280;47574;52.090;5.244;2023-07-20T01:56:16;101450.0;;;21.59;56.35
61676;BME280;47574;52.090;5.244;2023-07-20T01:57:52;101456.0;;;21.53;56.51
61676;BME280;47574;52.090;5.244;2023-07-20T01:59:29;101455.0;;;21.45;56.88
61676;BME280;47574;52.090;5.244;2023-07-20T02:01:05;101453.0;;;21.22;57.4
61676;BME280;47574;52.090;5.244;2023-07-20T02:04:17;101453.0;;;21.47;57.06
61676;BME280;47574;52.090;5.244;2023-07-20T02:05:53;101451.0;;;21.53;56.98
61676;BME280;47574;52.090;5.244;2023-07-20T02:07:29;101448.0;;;21.17;57.58
61676;BME280;47574;52.090;5.244;2023-07-20T02:10:42;101452.0;;;21.42;57.34
61676;BME280;47574;52.090;5.244;2023-07-20T02:12:21;101448.0;;;21.53;56.9
61676;BME280;47574;52.090;5.244;2023-07-20T02:13:57;101451.0;;;21.61;56.7
61676;BME280;47574;52.090;5.244;2023-07-20T02:17:09;101446.0;;;21.77;56.51
61676;BME280;47574;52.090;5.244;2023-07-20T02:18:45;101445.0;;;21.57;56.29
61676;BME280;47574;52.090;5.244;2023-07-20T02:20:21;101452.0;;;21.73;56.08
61676;BME280;47574;52.090;5.244;2023-07-20T02:21:58;101452.0;;;21.54;56.42
61676;BME280;47574;52.090;5.244;2023-07-20T02:25:10;101449.0;;;21.79;55.97
61676;BME280;47574;52.090;5.244;2023-07-20T02:26:46;101451.0;;;21.67;56.45
61676;BME280;47574;52.090;5.244;2023-07-20T02:28:22;101451.0;;;21.53;56.64
61676;BME280;47574;52.090;5.244;2023-07-20T02:31:34;101453.0;;;21.37;56.51
61676;BME280;47574;52.090;5.244;2023-07-20T02:33:10;101450.0;;;21.57;56.36
61676;BME280;47574;52.090;5.244;2023-07-20T02:34:46;101450.0;;;21.57;56.45
61676;BME280;47574;52.090;5.244;2023-07-20T02:37:59;101448.0;;;21.62;56.1
61676;BME280;47574;52.090;5.244;2023-07-20T02:39:35;101452.0;;;21.56;55.7
61676;BME280;47574;52.090;5.244;2023-07-20T02:41:11;101457.0;;;21.73;55.82
61676;BME280;47574;52.090;5.244;2023-07-20T02:44:25;101461.0;;;22.02;55.21
61676;BME280;47574;52.090;5.244;2023-07-20T02:46:01;101457.0;;;21.73;55.74
61676;BME280;47574;52.090;5.244;2023-07-20T02:47:37;101458.0;;;21.9;55.64
61676;BME280;47574;52.090;5.244;2023-07-20T02:49:13;101461.0;;;21.94;55.5
61676;BME280;47574;52.090;5.244;2023-07-20T02:52:26;101464.0;;;21.88;55.47
61676;BME280;47574;52.090;5.244;2023-07-20T02:54:02;101462.0;;;21.85;55.58
61676;BME280;47574;52.090;5.244;2023-07-20T02:55:38;101462.0;;;21.7;55.94
61676;BME280;47574;52.090;5.244;2023-07-20T02:58:51;101467.0;;;21.88;55.37
61676;BME280;47574;52.090;5.244;2023-07-20T03:00:27;101471.0;;;21.86;55.65
61676;BME280;47574;52.090;5.244;2023-07-20T03:02:03;101477.0;;;21.71;55.82
61676;BME280;47574;52.090;5.244;2023-07-20T03:05:15;101478.0;;;21.63;55.99
61676;BME280;47574;52.090;5.244;2023-07-20T03:06:52;101475.0;;;21.8;55.55
61676;BME280;47574;52.090;5.244;2023-07-20T03:08:28;101478.0;;;21.57;55.86
61676;BME280;47574;52.090;5.244;2023-07-20T03:10:05;101480.0;;;21.65;55.77
61676;BME280;47574;52.090;5.244;2023-07-20T03:13:17;101477.0;;;21.79;54.98
61676;BME280;47574;52.090;5.244;2023-07-20T03:14:53;101486.0;;;21.63;55.6
61676;BME280;47574;52.090;5.244;2023-07-20T03:16:29;101489.0;;;21.47;55.42
61676;BME280;47574;52.090;5.244;2023-07-20T03:19:41;101491.0;;;21.34;55.78
61676;BME280;47574;52.090;5.244;2023-07-20T03:21:18;101494.0;;;21.33;56.28
61676;BME280;47574;52.090;5.244;2023-07-20T03:22:54;101491.0;;;21.17;56.39
61676;BME280;47574;52.090;5.244;2023-07-20T03:26:06;101489.0;;;21.17;56.36
61676;BME280;47574;52.090;5.244;2023-07-20T03:27:42;101492.0;;;21.41;55.84
61676;BME280;47574;52.090;5.244;2023-07-20T03:29:18;101487.0;;;21.18;56.09
61676;BME280;47574;52.090;5.244;2023-07-20T03:32:31;101489.0;;;21.26;55.96
61676;BME280;47574;52.090;5.244;2023-07-20T03:34:07;101486.0;;;21.56;55.6
61676;BME280;47574;52.090;5.244;2023-07-20T03:35:44;101487.0;;;21.59;55.54
61676;BME280;47574;52.090;5.244;2023-07-20T03:37:20;101489.0;;;21.67;55.34
61676;BME280;47574;52.090;5.244;2023-07-20T03:40:32;101491.0;;;21.77;55.05
61676;BME280;47574;52.090;5.244;2023-07-20T03:42:08;101491.0;;;21.79;55.18
61676;BME280;47574;52.090;5.244;2023-07-20T03:43:44;101492.0;;;21.8;55.0
61676;BME280;47574;52.090;5.244;2023-07-20T03:46:56;101490.0;;;21.59;55.46
61676;BME280;47574;52.090;5.244;2023-07-20T03:48:33;101497.0;;;21.6;55.07
61676;BME280;47574;52.090;5.244;2023-07-20T03:50:10;101494.0;;;21.65;55.16
61676;BME280;47574;52.090;5.244;2023-07-20T03:53:22;101497.0;;;21.45;55.06
61676;BME280;47574;52.090;5.244;2023-07-20T03:54:58;101497.0;;;21.39;55.37
61676;BME280;47574;52.090;5.244;2023-07-20T03:56:34;101495.0;;;21.24;55.72
61676;BME280;47574;52.090;5.244;2023-07-20T03:59:48;101496.0;;;21.04;56.06
61676;BME280;47574;52.090;5.244;2023-07-20T04:01:24;101497.0;;;21.63;54.92
61676;BME280;47574;52.090;5.244;2023-07-20T04:03:00;101498.0;;;21.43;55.6
61676;BME280;47574;52.090;5.244;2023-07-20T04:04:37;101499.0;;;21.7;55.03
61676;BME280;47574;52.090;5.244;2023-07-20T04:07:49;101497.0;;;21.6;55.13
61676;BME280;47574;52.090;5.244;2023-07-20T04:09:25;101505.0;;;21.57;55.6
61676;BME280;47574;52.090;5.244;2023-07-20T04:11:01;101507.0;;;21.6;55.44
61676;BME280;47574;52.090;5.244;2023-07-20T04:14:13;101510.0;;;21.4;55.69
61676;BME280;47574;52.090;5.244;2023-07-20T04:15:49;101511.0;;;21.16;55.98
61676;BME280;47574;52.090;5.244;2023-07-20T04:17:25;101510.0;;;21.44;55.62
61676;BME280;47574;52.090;5.244;2023-07-20T04:20:37;101517.0;;;21.24;56.05
61676;BME280;47574;52.090;5.244;2023-07-20T04:22:13;101515.0;;;21.35;55.58
61676;BME280;47574;52.090;5.244;2023-07-20T04:23:50;101515.0;;;21.3;55.97
61676;BME280;47574;52.090;5.244;2023-07-20T04:25:26;101516.0;;;20.98;56.45
61676;BME280;47574;52.090;5.244;2023-07-20T04:28:38;101520.0;;;21.23;56.03
61676;BME280;47574;52.090;5.244;2023-07-20T04:30:17;101517.0;;;21.36;55.83
61676;BME280;47574;52.090;5.244;2023-07-20T04:31:53;101520.0;;;21.47;55.63
61676;BME280;47574;52.090;5.244;2023-07-20T04:35:06;101521.0;;;21.47;55.52
61676;BME280;47574;52.090;5.244;2023-07-20T04:36:42;101523.0;;;21.54;55.61
61676;BME280;47574;52.090;5.244;2023-07-20T04:38:19;101524.0;;;21.33;55.9
61676;BME280;47574;52.090;5.244;2023-07-20T04:41:32;101525.0;;;21.45;56.0
61676;BME280;47574;52.090;5.244;2023-07-20T04:43:08;101524.0;;;21.59;55.59
61676;BME280;47574;52.090;5.244;2023-07-20T04:44:44;101523.0;;;21.46;55.77
61676;BME280;47574;52.090;5.244;2023-07-20T04:46:20;101524.0;;;21.46;55.85
61676;BME280;47574;52.090;5.244;2023-07-20T04:49:32;101530.0;;;21.61;55.31
61676;BME280;47574;52.090;5.244;2023-07-20T04:51:09;101527.0;;;21.41;55.73
61676;BME280;47574;52.090;5.244;2023-07-20T04:52:45;101530.0;;;21.6;55.37
61676;BME280;47574;52.090;5.244;2023-07-20T04:55:57;101525.0;;;21.6;55.55
61676;BME280;47574;52.090;5.244;2023-07-20T04:57:33;101530.0;;;21.65;55.37
61676;BME280;47574;52.090;5.244;2023-07-20T04:59:09;101532.0;;;21.41;55.94
61676;BME280;47574;52.090;5.244;2023-07-20T05:02:21;101537.0;;;21.38;56.28
61676;BME280;47574;52.090;5.244;2023-07-20T05:03:57;101535.0;;;21.43;56.25
61676;BME280;47574;52.090;5.244;2023-07-20T05:05:34;101538.0;;;21.36;56.57
61676;BME280;47574;52.090;5.244;2023-07-20T05:08:46;101533.0;;;21.37;56.33
61676;BME280;47574;52.090;5.244;2023-07-20T05:10:23;101538.0;;;21.16;56.93
61676;BME280;47574;52.090;5.244;2023-07-20T05:11:59;101532.0;;;21.08;57.3
61676;BME280;47574;52.090;5.244;2023-07-20T05:13:36;101534.0;;;21.07;57.2
61676;BME280;47574;52.090;5.244;2023-07-20T05:16:48;101533.0;;;20.95;57.4
61676;BME280;47574;52.090;5.244;2023-07-20T05:18:25;101538.0;;;21.24;56.94
61676;BME280;47574;52.090;5.244;2023-07-20T05:20:01;101535.0;;;21.27;56.76
61676;BME280;47574;52.090;5.244;2023-07-20T05:23:14;101537.0;;;21.57;56.19
61676;BME280;47574;52.090;5.244;2023-07-20T05:24:50;101536.0;;;21.39;56.32
61676;BME280;47574;52.090;5.244;2023-07-20T05:26:26;101538.0;;;21.17;56.85
61676;BME280;47574;52.090;5.244;2023-07-20T05:29:43;101535.0;;;21.52;56.26
61676;BME280;47574;52.090;5.244;2023-07-20T05:31:20;101537.0;;;21.37;56.18
61676;BME280;47574;52.090;5.244;2023-07-20T05:32:56;101534.0;;;21.36;55.84
61676;BME280;47574;52.090;5.244;2023-07-20T05:34:32;101537.0;;;21.53;55.23
61676;BME280;47574;52.090;5.244;2023-07-20T05:37:44;101533.0;;;21.57;55.27
61676;BME280;47574;52.090;5.244;2023-07-20T05:39:21;101534.0;;;21.65;54.76
61676;BME280;47574;52.090;5.244;2023-07-20T05:40:59;101533.0;;;21.78;54.6
61676;BME280;47574;52.090;5.244;2023-07-20T05:44:12;101534.0;;;21.64;54.58
61676;BME280;47574;52.090;5.244;2023-07-20T05:45:49;101531.0;;;21.57;54.82
61676;BME280;47574;52.090;5.244;2023-07-20T05:47:25;101531.0;;;21.6;54.21
61676;BME280;47574;52.090;5.244;2023-07-20T05:50:38;101532.0;;;21.83;52.92
61676;BME280;47574;52.090;5.244;2023-07-20T05:52:18;101533.0;;;21.78;53.36
61676;BME280;47574;52.090;5.244;2023-07-20T05:53:54;101530.0;;;21.85;53.42
61676;BME280;47574;52.090;5.244;2023-07-20T05:55:31;101527.0;;;21.82;52.37
61676;BME280;47574;52.090;5.244;2023-07-20T05:58:44;101530.0;;;21.76;52.95
61676;BME280;47574;52.090;5.244;2023-07-20T06:00:19;101532.0;;;22.14;52.31
61676;BME280;47574;52.090;5.244;2023-07-20T06:01:56;101540.0;;;21.95;51.61
61676;BME280;47574;52.090;5.244;2023-07-20T06:05:08;101539.0;;;22.0;51.85
61676;BME280;47574;52.090;5.244;2023-07-20T06:06:45;101546.0;;;22.07;52.12
61676;BME280;47574;52.090;5.244;2023-07-20T06:08:21;101544.0;;;22.05;51.66
61676;BME280;47574;52.090;5.244;2023-07-20T06:11:33;101542.0;;;21.89;51.87
61676;BME280;47574;52.090;5.244;2023-07-20T06:13:09;101544.0;;;21.96;51.67
61676;BME280;47574;52.090;5.244;2023-07-20T06:14:46;101544.0;;;21.91;51.49
61676;BME280;47574;52.090;5.244;2023-07-20T06:16:22;101548.0;;;22.11;51.2
61676;BME280;47574;52.090;5.244;2023-07-20T06:19:34;101550.0;;;22.09;51.03
61676;BME280;47574;52.090;5.244;2023-07-20T06:21:11;101546.0;;;22.26;51.05
61676;BME280;47574;52.090;5.244;2023-07-20T06:22:47;101547.0;;;22.45;51.42
61676;BME280;47574;52.090;5.244;2023-07-20T06:25:59;101547.0;;;22.19;50.62
61676;BME280;47574;52.090;5.244;2023-07-20T06:27:35;101548.0;;;22.12;50.48
61676;BME280;47574;52.090;5.244;2023-07-20T06:29:12;101545.0;;;22.48;50.23
61676;BME280;47574;52.090;5.244;2023-07-20T06:32:24;101552.0;;;22.56;50.09
61676;BME280;47574;52.090;5.244;2023-07-20T06:34:00;101550.0;;;22.81;49.79
61676;BME280;47574;52.090;5.244;2023-07-20T06:35:36;101555.0;;;22.57;49.78
61676;BME280;47574;52.090;5.244;2023-07-20T06:38:48;101558.0;;;22.46;49.08
61676;BME280;47574;52.090;5.244;2023-07-20T06:40:24;101558.0;;;22.57;49.36
61676;BME280;47574;52.090;5.244;2023-07-20T06:43:37;101565.0;;;22.62;49.14
61676;BME280;47574;52.090;5.244;2023-07-20T06:46:49;101568.0;;;22.62;48.4
61676;BME280;47574;52.090;5.244;2023-07-20T06:48:25;101567.0;;;22.65;49.06
61676;BME280;47574;52.090;5.244;2023-07-20T06:50:01;101567.0;;;22.62;48.63
61676;BME280;47574;52.090;5.244;2023-07-20T06:53:13;101563.0;;;22.94;48.1
61676;BME280;47574;52.090;5.244;2023-07-20T06:54:49;101566.0;;;22.8;48.44
61676;BME280;47574;52.090;5.244;2023-07-20T06:56:26;101569.0;;;22.79;48.21
61676;BME280;47574;52.090;5.244;2023-07-20T06:59:37;101571.0;;;22.92;47.92
61676;BME280;47574;52.090;5.244;2023-07-20T07:01:14;101573.0;;;22.86;47.94
61676;BME280;47574;52.090;5.244;2023-07-20T07:02:50;101567.0;;;22.95;47.49
61676;BME280;47574;52.090;5.244;2023-07-20T07:04:26;101567.0;;;22.73;47.88
61676;BME280;47574;52.090;5.244;2023-07-20T07:07:39;101565.0;;;22.96;47.66
61676;BME280;47574;52.090;5.244;2023-07-20T07:09:15;101565.0;;;22.87;47.66
61676;BME280;47574;52.090;5.244;2023-07-20T07:10:52;101567.0;;;23.15;47.36
61676;BME280;47574;52.090;5.244;2023-07-20T07:14:04;101564.0;;;22.93;47.58
61676;BME280;47574;52.090;5.244;2023-07-20T07:15:40;101562.0;;;23.01;47.23
61676;BME280;47574;52.090;5.244;2023-07-20T07:17:16;101565.0;;;23.05;47.64
61676;BME280;47574;52.090;5.244;2023-07-20T07:20:28;101569.0;;;23.15;47.37
61676;BME280;47574;52.090;5.244;2023-07-20T07:22:05;101567.0;;;23.06;47.6
61676;BME280;47574;52.090;5.244;2023-07-20T07:23:41;101572.0;;;23.09;47.82
61676;BME280;47574;52.090;5.244;2023-07-20T07:26:53;101570.0;;;23.01;47.5
61676;BME280;47574;52.090;5.244;2023-07-20T07:28:29;101572.0;;;23.2;47.56
61676;BME280;47574;52.090;5.244;2023-07-20T07:30:06;101578.0;;;23.16;46.89
61676;BME280;47574;52.090;5.244;2023-07-20T07:31:43;101574.0;;;23.09;47.06
61676;BME280;47574;52.090;5.244;2023-07-20T07:34:55;101578.0;;;23.2;46.1
61676;BME280;47574;52.090;5.244;2023-07-20T07:36:32;101575.0;;;23.16;46.98
61676;BME280;47574;52.090;5.244;2023-07-20T07:38:09;101575.0;;;23.01;45.85
61676;BME280;47574;52.090;5.244;2023-07-20T07:41:21;101574.0;;;23.11;46.41
61676;BME280;47574;52.090;5.244;2023-07-20T07:42:57;101572.0;;;23.19;46.3
61676;BME280;47574;52.090;5.244;2023-07-20T07:44:33;101573.0;;;22.96;45.66
61676;BME280;47574;52.090;5.244;2023-07-20T07:47:45;101572.0;;;23.01;46.25
61676;BME280;47574;52.090;5.244;2023-07-20T07:49:21;101576.0;;;23.51;45.6
61676;BME280;47574;52.090;5.244;2023-07-20T07:50:57;101580.0;;;23.28;45.52
61676;BME280;47574;52.090;5.244;2023-07-20T07:52:33;101582.0;;;23.47;46.25
61676;BME280;47574;52.090;5.244;2023-07-20T07:55:47;101580.0;;;23.57;45.43
61676;BME280;47574;52.090;5.244;2023-07-20T07:57:23;101580.0;;;23.46;45.12
61676;BME280;47574;52.090;5.244;2023-07-20T07:58:59;101580.0;;;23.61;44.84
61676;BME280;47574;52.090;5.244;2023-07-20T08:02:11;101578.0;;;23.41;44.13
61676;BME280;47574;52.090;5.244;2023-07-20T08:03:47;101578.0;;;23.65;43.73
61676;BME280;47574;52.090;5.244;2023-07-20T08:05:23;101580.0;;;23.76;42.74
61676;BME280;47574;52.090;5.244;2023-07-20T08:08:37;101580.0;;;23.7;43.88
61676;BME280;47574;52.090;5.244;2023-07-20T08:10:14;101575.0;;;23.93;43.25
61676;BME280;47574;52.090;5.244;2023-07-20T08:11:50;101574.0;;;23.62;44.04
61676;BME280;47574;52.090;5.244;2023-07-20T08:13:26;101574.0;;;23.63;43.36
61676;BME280;47574;52.090;5.244;2023-07-20T08:16:38;101574.0;;;23.49;42.32
61676;BME280;47574;52.090;5.244;2023-07-20T08:18:14;101570.0;;;23.62;41.79
61676;BME280;47574;52.090;5.244;2023-07-20T08:19:51;101570.0;;;23.67;41.72
61676;BME280;47574;52.090;5.244;2023-07-20T08:23:03;101571.0;;;23.7;41.55
61676;BME280;47574;52.090;5.244;2023-07-20T08:24:39;101571.0;;;23.9;40.62
61676;BME280;47574;52.090;5.244;2023-07-20T08:26:16;101573.0;;;24.05;40.4
61676;BME280;47574;52.090;5.244;2023-07-20T08:29:28;101577.0;;;24.12;40.22
61676;BME280;47574;52.090;5.244;2023-07-20T08:31:05;101580.0;;;24.3;38.94
61676;BME280;47574;52.090;5.244;2023-07-20T08:32:42;101580.0;;;24.13;38.74
61676;BME280;47574;52.090;5.244;2023-07-20T08:35:55;101582.0;;;24.22;37.89
61676;BME280;47574;52.090;5.244;2023-07-20T08:37:31;101584.0;;;24.22;37.99
61676;BME280;47574;52.090;5.244;2023-07-20T08:39:07;101584.0;;;24.02;37.75
61676;BME280;47574;52.090;5.244;2023-07-20T08:40:45;101583.0;;;23.99;37.93
61676;BME280;47574;52.090;5.244;2023-07-20T08:44:00;101588.0;;;24.26;37.01
61676;BME280;47574;52.090;5.244;2023-07-20T08:45:38;101588.0;;;24.24;36.67
61676;BME280;47574;52.090;5.244;2023-07-20T08:47:16;101584.0;;;24.24;36.71
61676;BME280;47574;52.090;5.244;2023-07-20T08:50:31;101582.0;;;23.9;37.42
61676;BME280;47574;52.090;5.244;2023-07-20T08:52:08;101585.0;;;23.92;37.9
61676;BME280;47574;52.090;5.244;2023-07-20T08:53:45;101585.0;;;24.32;36.46
61676;BME280;47574;52.090;5.244;2023-07-20T08:55:23;101581.0;;;24.2;36.62
61676;BME280;47574;52.090;5.244;2023-07-20T08:58:43;101584.0;;;24.2;36.31
61676;BME280;47574;52.090;5.244;2023-07-20T09:00:20;101584.0;;;24.04;35.28
61676;BME280;47574;52.090;5.244;2023-07-20T09:01:58;101585.0;;;24.41;34.19
61676;BME280;47574;52.090;5.244;2023-07-20T09:05:11;101581.0;;;24.11;35.32
61676;BME280;47574;52.090;5.244;2023-07-20T09:06:48;101581.0;;;24.34;35.71
61676;BME280;47574;52.090;5.244;2023-07-20T09:08:25;101580.0;;;24.32;35.19
61676;BME280;47574;52.090;5.244;2023-07-20T09:10:01;101578.0;;;24.09;35.85
61676;BME280;47574;52.090;5.244;2023-07-20T09:13:15;101578.0;;;24.44;35.01
61676;BME280;47574;52.090;5.244;2023-07-20T09:14:51;101573.0;;;24.57;34.56
61676;BME280;47574;52.090;5.244;2023-07-20T09:16:28;101572.0;;;24.69;34.92
61676;BME280;47574;52.090;5.244;2023-07-20T09:19:45;101577.0;;;24.66;35.17
61676;BME280;47574;52.090;5.244;2023-07-20T09:21:22;101573.0;;;24.45;34.61
61676;BME280;47574;52.090;5.244;2023-07-20T09:22:58;101573.0;;;24.39;33.64
61676;BME280;47574;52.090;5.244;2023-07-20T09:24:34;101580.0;;;24.54;33.6
61676;BME280;47574;52.090;5.244;2023-07-20T09:27:49;101580.0;;;24.72;33.32
61676;BME280;47574;52.090;5.244;2023-07-20T09:29:26;101583.0;;;24.51;35.01
61676;BME280;47574;52.090;5.244;2023-07-20T09:31:15;101575.0;;;25.06;33.89
61676;BME280;47574;52.090;5.244;2023-07-20T09:34:28;101576.0;;;25.22;33.78
61676;BME280;47574;52.090;5.244;2023-07-20T09:36:05;101578.0;;;25.24;32.85
61676;BME280;47574;52.090;5.244;2023-07-20T09:37:46;101576.0;;;25.0;33.14
61676;BME280;47574;52.090;5.244;2023-07-20T09:39:22;101572.0;;;25.2;33.57
61676;BME280;47574;52.090;5.244;2023-07-20T09:42:35;101573.0;;;25.13;32.76
61676;BME280;47574;52.090;5.244;2023-07-20T09:44:14;101572.0;;;24.95;32.44
61676;BME280;47574;52.090;5.244;2023-07-20T09:45:57;101572.0;;;25.07;32.49
61676;BME280;47574;52.090;5.244;2023-07-20T09:47:36;101567.0;;;24.97;32.42
61676;BME280;47574;52.090;5.244;2023-07-20T09:50:50;101570.0;;;25.06;33.24
61676;BME280;47574;52.090;5.244;2023-07-20T09:52:27;101573.0;;;25.23;32.68
61676;BME280;47574;52.090;5.244;2023-07-20T09:54:04;101574.0;;;25.32;32.32
61676;BME280;47574;52.090;5.244;2023-07-20T09:57:18;101566.0;;;25.14;32.87
61676;BME280;47574;52.090;5.244;2023-07-20T09:58:57;101561.0;;;24.97;33.14
61676;BME280;47574;52.090;5.244;2023-07-20T10:00:34;101563.0;;;25.2;33.12
61676;BME280;47574;52.090;5.244;2023-07-20T10:03:58;101563.0;;;25.02;32.86
61676;BME280;47574;52.090;5.244;2023-07-20T10:05:40;101559.0;;;25.0;33.5
61676;BME280;47574;52.090;5.244;2023-07-20T10:07:22;101561.0;;;25.2;33.03
61676;BME280;47574;52.090;5.244;2023-07-20T10:09:01;101562.0;;;25.24;33.72
61676;BME280;47574;52.090;5.244;2023-07-20T10:10:40;101551.0;;;25.53;33.28
61676;BME280;47574;52.090;5.244;2023-07-20T10:13:59;101555.0;;;25.33;33.03
61676;BME280;47574;52.090;5.244;2023-07-20T10:15:43;101550.0;;;25.36;33.54
61676;BME280;47574;52.090;5.244;2023-07-20T10:17:23;101551.0;;;25.73;33.32
61676;BME280;47574;52.090;5.244;2023-07-20T10:19:05;101555.0;;;26.09;33.1
61676;BME280;47574;52.090;5.244;2023-07-20T10:22:26;101550.0;;;26.24;32.56
61676;BME280;47574;52.090;5.244;2023-07-20T10:24:07;101550.0;;;26.09;32.53
61676;BME280;47574;52.090;5.244;2023-07-20T10:27:23;101549.0;;;25.89;32.58
61676;BME280;47574;52.090;5.244;2023-07-20T10:30:37;101541.0;;;25.82;32.68
61676;BME280;47574;52.090;5.244;2023-07-20T10:32:14;101545.0;;;25.65;33.57
61676;BME280;47574;52.090;5.244;2023-07-20T10:33:50;101543.0;;;25.66;32.64
61676;BME280;47574;52.090;5.244;2023-07-20T10:37:04;101546.0;;;26.04;32.37
61676;BME280;47574;52.090;5.244;2023-07-20T10:38:41;101545.0;;;25.96;32.89
61676;BME280;47574;52.090;5.244;2023-07-20T10:40:34;101544.0;;;26.23;32.42
61676;BME280;47574;52.090;5.244;2023-07-20T10:42:14;101543.0;;;26.0;32.18
61676;BME280;47574;52.090;5.244;2023-07-20T10:45:50;101539.0;;;26.29;32.49
61676;BME280;47574;52.090;5.244;2023-07-20T10:47:28;101537.0;;;26.26;32.76
61676;BME280;47574;52.090;5.244;2023-07-20T10:49:20;101536.0;;;26.37;32.96
61676;BME280;47574;52.090;5.244;2023-07-20T10:51:13;101535.0;;;26.32;32.58
61676;BME280;47574;52.090;5.244;2023-07-20T10:53:04;101525.0;;;26.71;32.21
61676;BME280;47574;52.090;5.244;2023-07-20T10:54:48;101528.0;;;26.65;33.0
61676;BME280;47574;52.090;5.244;2023-07-20T10:58:08;101528.0;;;26.87;31.98
61676;BME280;47574;52.090;5.244;2023-07-20T10:59:46;101527.0;;;26.85;32.24
61676;BME280;47574;52.090;5.244;2023-07-20T11:01:27;101534.0;;;26.54;31.77
61676;BME280;47574;52.090;5.244;2023-07-20T11:03:04;101528.0;;;26.81;31.31
61676;BME280;47574;52.090;5.244;2023-07-20T11:06:34;101527.0;;;27.06;30.8
61676;BME280;47574;52.090;5.244;2023-07-20T11:08:11;101527.0;;;27.13;30.36
61676;BME280;47574;52.090;5.244;2023-07-20T11:09:47;101525.0;;;27.12;31.43
61676;BME280;47574;52.090;5.244;2023-07-20T11:11:25;101528.0;;;27.1;30.15